createdAt,value
2024-03-11T00:01:03.505Z,16.1
2024-03-11T00:13:03.938Z,16.1
2024-03-11T00:25:05.036Z,15.9
2024-03-11T00:37:05.877Z,15.9
2024-03-11T00:49:04.075Z,15.8
2024-03-11T01:01:02.815Z,15.8
2024-03-11T01:13:02.749Z,15.9
2024-03-11T01:25:02.683Z,15.8
2024-03-11T01:37:02.185Z,16.1
2024-03-11T01:49:02.403Z,16.2
2024-03-11T02:01:02.520Z,16.2
2024-03-11T02:13:02.568Z,16.2
2024-03-11T02:25:02.272Z,16.3
2024-03-11T02:37:03.279Z,15.9
2024-03-11T02:49:02.793Z,15.9
2024-03-11T03:01:02.394Z,15.8
2024-03-11T03:13:03.027Z,15.8
2024-03-11T03:25:02.882Z,15.7
2024-03-11T03:37:02.840Z,15.7
2024-03-11T03:49:02.934Z,15.6
2024-03-11T04:01:02.758Z,15.6
2024-03-11T04:13:02.902Z,15.6
2024-03-11T04:25:02.942Z,15.6
2024-03-11T04:37:03.238Z,15.6
2024-03-11T04:49:02.722Z,15.5
2024-03-11T05:01:03.675Z,15.5
2024-03-11T05:13:02.854Z,15.4
2024-03-11T05:25:02.871Z,15.5
2024-03-11T05:37:02.950Z,15.4
2024-03-11T05:49:02.588Z,15.4
2024-03-11T06:01:02.901Z,16.3
2024-03-11T06:13:03.111Z,17.6
2024-03-11T06:25:03.340Z,17
2024-03-11T06:37:02.992Z,16.6
2024-03-11T06:49:03.009Z,16.4
2024-03-11T07:01:02.780Z,16.2
2024-03-11T07:13:02.771Z,16.1
2024-03-11T07:25:02.653Z,16
2024-03-11T07:37:03.118Z,15.9
2024-03-11T07:49:03.573Z,15.8
2024-03-11T08:01:02.976Z,17.1
2024-03-11T08:13:02.894Z,17.9
2024-03-11T08:25:03.577Z,17.3
2024-03-11T08:37:03.800Z,16.9
2024-03-11T08:49:03.720Z,16.7
2024-03-11T09:01:03.250Z,16.5
2024-03-11T09:13:04.110Z,16.3
2024-03-11T09:25:03.392Z,16.2
2024-03-11T09:37:03.958Z,16.5
2024-03-11T09:49:03.785Z,16.5
2024-03-11T10:01:03.877Z,16.5
2024-03-11T10:13:05.258Z,16.6
2024-03-11T10:25:03.904Z,16.6
2024-03-11T10:37:04.964Z,16.6
2024-03-11T10:49:05.968Z,16.6
2024-03-11T11:01:03.556Z,16.6
2024-03-11T11:13:04.608Z,16.7
2024-03-11T11:25:04.342Z,16.6
2024-03-11T11:37:04.765Z,16.6
2024-03-11T11:49:03.630Z,16.6
2024-03-11T12:01:03.710Z,16.7
2024-03-11T12:13:04.294Z,16.7
2024-03-11T12:25:04.157Z,16.7
2024-03-11T12:37:04.711Z,16.7
2024-03-11T12:49:04.333Z,16.7
2024-03-11T13:01:04.730Z,16.8
2024-03-11T13:13:04.598Z,16.8
2024-03-11T13:25:04.688Z,16.5
2024-03-11T13:37:05.240Z,16.4
2024-03-11T13:49:04.423Z,16.4
2024-03-11T14:01:03.640Z,16.3
2024-03-11T14:13:04.252Z,16.2
2024-03-11T14:25:03.366Z,16.2
2024-03-11T14:37:03.906Z,16.2
2024-03-11T14:49:04.044Z,16.1
2024-03-11T15:01:05.295Z,16.1
2024-03-11T15:13:03.604Z,16
2024-03-11T15:25:03.836Z,16
2024-03-11T15:37:03.992Z,16
2024-03-11T15:49:06.443Z,16
2024-03-11T16:01:04.278Z,15.9
2024-03-11T16:13:04.892Z,16.2
2024-03-11T16:25:03.077Z,16.2
2024-03-11T16:37:03.551Z,16.3
2024-03-11T16:49:03.494Z,16.6
2024-03-11T17:01:03.256Z,16.7
2024-03-11T17:13:05.125Z,16.7
2024-03-11T17:25:03.598Z,16.8
2024-03-11T17:37:03.248Z,16.7
2024-03-11T17:49:03.883Z,16.8
2024-03-11T18:01:04.033Z,16.8
2024-03-11T18:13:03.771Z,16.9
2024-03-11T18:25:03.706Z,16.9
2024-03-11T18:37:03.560Z,16.9
2024-03-11T18:49:04.107Z,16.9
2024-03-11T19:01:03.788Z,16.9
2024-03-11T19:13:04.186Z,16.9
2024-03-11T19:25:03.547Z,16.8
2024-03-11T19:37:03.773Z,18.5
2024-03-11T19:49:04.969Z,17.9
2024-03-11T20:01:03.958Z,17.5
2024-03-11T20:13:03.541Z,17.4
2024-03-11T20:25:03.641Z,17.3
2024-03-11T20:37:03.648Z,17.2
2024-03-11T20:49:03.652Z,17.2
2024-03-11T21:01:03.869Z,17.1
2024-03-11T21:13:04.175Z,17.1
2024-03-11T21:25:03.609Z,17.1
2024-03-11T21:37:03.472Z,17
2024-03-11T21:49:04.110Z,16.7
2024-03-11T22:01:05.538Z,16.7
2024-03-11T22:13:04.534Z,16.5
2024-03-11T22:25:04.871Z,16.4
2024-03-11T22:37:04.062Z,16.3
2024-03-11T22:49:06.370Z,16.3
2024-03-11T23:01:03.768Z,16.2
2024-03-11T23:13:04.311Z,16.2
2024-03-11T23:25:03.662Z,16.2
2024-03-11T23:37:03.712Z,16.2
2024-03-11T23:49:03.945Z,16.1
